• Join FlightAware (Why Join?)
  • Login
  • US Flag 
03:16PM EDT


 

Airport Tracker/Info


-or-


 

Live Flight TrackerFlight Track Log ✈ PDT4456 ✈ 12-Jun-2013 ✈ KSYR - KBOS

Flight Track Log - Related Links

Times and Time Zones

All times are in EDT time to prevent confusion due to time zone crossing. See the PDT4456 flight status page for this flight to view local times or setup timezone preferences in your user account.

Time Position Orientation Groundspeed Altitude Reporting Facility
EDT Latitude Longitude Course Direction KTS MPH feet Rate Location/Type
05:41PM 43.1078 -76.1261 144° Southeast 122 140 900  Level Boston Center
05:42PM 43.1072 -76.1433 267° West 114 131 1,500 1,080 Climbing Boston Center
05:43PM 43.0678 -76.1408 177° South 161 185 2,500 1,080 Climbing Boston Center
05:44PM 43.1002 -75.9399 16° North  Level FlightAware Approximate
05:44PM 43.0506 -76.0858 113° Southeast 173 199 3,700  Level Boston Center
05:45PM 43.1167 -75.8711 90° East  Level FlightAware Approximate
05:45PM 43.0400 -76.0311 105° East 179 206 4,700  Level Boston Center
05:46PM 43.0785 -75.8119 144° Southeast  Level FlightAware Approximate
05:46PM 43.0058 -75.9839 135° Southeast 173 199 5,800  Level Boston Center
05:47PM 42.9786 -75.9225 121° Southeast 173 199 7,000 1,200 Climbing Boston Center
05:48PM 42.9533 -75.8672 122° Southeast 182 209 8,200 1,140 Climbing Boston Center
05:49PM 42.9175 -75.8028 127° Southeast 193 222 9,300 1,080 Climbing Boston Center
05:50PM 42.8903 -75.7419 121° Southeast 198 228 10,400 900 Climbing Boston Center
05:51PM 42.8525 -75.6747 127° Southeast 203 234 11,200 720 Climbing Boston Center
05:52PM 42.8189 -75.6106 126° Southeast 208 239 12,100 780 Climbing Boston Center
05:53PM 42.7753 -75.5264 125° Southeast 213 245 13,000 780 Climbing Boston Center
05:54PM 42.7631 -75.4436 101° East 218 251 13,700 720 Climbing Boston Center
05:55PM 42.7611 -75.3558 92° East 218 251 14,500 660 Climbing Boston Center
05:56PM 42.7611 -75.2683 90° East 223 257 15,100 540 Climbing Boston Center
05:57PM 42.7614 -75.1750 90° East 233 268 15,600 540 Climbing Boston Center
05:58PM 42.7572 -75.0842 94° East 238 274 16,200 540 Climbing Boston Center
05:59PM 42.7511 -74.9906 95° East 238 274 16,700 360 Climbing Boston Center
06:00PM 42.7511 -74.8972 90° East 238 274 17,000 120 Climbing Boston Center
06:01PM 42.7389 -74.7808 98° East 264 304 17,000  Level Boston Center
06:02PM 42.7431 -74.6847 87° East 274 315 17,000  Level Boston Center
06:03PM 42.7431 -74.5717 90° East 274 315 17,000  Level Boston Center
06:04PM 42.7428 -74.4756 90° East 274 315 17,000  Level Boston Center
06:05PM 42.7447 -74.3597 89° East 274 315 17,000  Level Boston Center
06:06PM 42.7464 -74.2664 89° East 274 315 17,000  Level Boston Center
06:07PM 42.7461 -74.1478 90° East 274 315 17,000  Level Boston Center
06:08PM 42.7475 -74.0572 89° East 274 315 17,000  Level Boston Center
06:09PM 42.7467 -73.9497 91° East 269 310 17,000  Level Boston Center
06:10PM 42.7481 -73.8425 89° East 274 315 17,000  Level Boston Center
06:11PM 42.7494 -73.7350 89° East 274 315 17,000  Level Boston Center
06:12PM 42.7611 -73.6250 82° East 279 321 17,000  Level Boston Center
06:13PM 42.7706 -73.5092 84° East 279 321 17,000  Level Boston Center
06:14PM 42.7733 -73.4131 88° East 279 321 17,000  Level Boston Center
06:15PM 42.7681 -73.2942 93° East 279 321 17,100  Climbing Boston Center
06:16PM 42.7481 -73.2006 106° East 279 321 17,100 -60 Level Boston Center
06:17PM 42.7278 -73.0789 103° East 284 327 17,000  Descending Boston Center
06:18PM 42.7117 -72.9856 103° East 284 327 17,100 -240 Climbing Boston Center
06:19PM 42.6956 -72.8781 101° East 284 327 16,600 -780 Descending Boston Center
06:20PM 42.6689 -72.7619 107° East 297 342 15,600 -1,020 Descending Boston Center
06:21PM 42.6483 -72.6433 103° East 309 356 14,600 -1,020 Descending Boston Center
06:22PM 42.6297 -72.5275 102° East 314 361 13,600 -1,020 Descending Boston Center
06:23PM 42.6089 -72.4092 103° East 319 367 12,600 -1,020 Descending Boston Center
06:24PM 42.5878 -72.3019 105° East 319 367 11,600 -1,020 Descending Boston Center
06:25PM 42.5628 -72.1781 105° East 314 361 10,600 -1,080 Descending Boston Center
06:26PM 42.5436 -72.0708 104° East 297 342 9,500 -780 Descending Boston Center
06:27PM 42.5328 -71.9667 98° East 290 334 9,100 -240 Descending Boston Center
06:28PM 42.5281 -71.8711 94° East 266 306 9,100  Level Boston Center
06:29PM 42.5172 -71.7753 99° East 255 293 9,100  Level Boston Center
06:30PM 42.5019 -71.6656 101° East 249 287 9,100  Level Boston Center
06:31PM 42.4931 -71.5814 98° East 249 287 9,100 -300 Level Boston Center
06:32PM 42.4833 -71.4667 97° East 250 288 8,500 -1,260 Descending KA90
06:33PM 42.4667 -71.3667 103° East 270 311 6,500 -1,740 Descending KA90
06:34PM 42.4500 -71.2833 105° East 237 273 5,000 -780 Descending KA90
06:35PM 42.4500 -71.1833 90° East 237 273 5,000  Level KA90
06:36PM 42.4167 -71.1333 132° Southeast 249 287 5,000 -300 Level KA90
06:37PM 42.3500 -71.1667 200° South 242 278 4,400 -540 Descending KA90
06:38PM 42.3019 -71.2106 214° Southwest 224 258 4,000 -660 Descending Boston Center
06:39PM 42.2439 -71.2342 197° South 224 258 3,200 -540 Descending Boston Center
06:40PM 42.2222 -71.1672 114° Southeast 168 193 3,000 -360 Descending Boston Center
06:41PM 42.2531 -71.1106 54° Northeast 148 170 2,500 -840 Descending Boston Center
06:42PM 42.2878 -71.0622 46° Northeast 170 196 1,400 -1,140 Descending Boston Center